Tiempo atmosférico en la estación meteorológica de Rojales, Alacant/Alicante (31 m.)



Fecha
DESCASC
Temp. máxima en grados centígrados (hora)
DESCASC
Temp. mínima en grados centígrados (hora)
DESCASC
Temp. media en grados centígrados
DESCASC
Racha de viento máxima en m/sg (hora)
DESCASC
Velocidad máxima media en intervalos de 10 minutos(hora)
DESCASC
Precipitaciones diarias en mm
DESCASC
Precipitaciones de 00:00 a 06:00 en mm
DESCASC
Precipitaciones de 06:00 a 12:00 en mm
DESCASC
Precipitaciones de 12:00 a 18:00 en mm
DESCASC
Precipitaciones de 18:00 a 24:00 en mm
DESCASC
12-11-2019 19.6 (14:40) 10.6 (00:00) 15.1 12.5 (16:30) 8.33 (17:00) 0 0 0 0 0
11-11-2019 18 (14:20) 9.6 (07:30) 13.8 11.94 (14:50) 7.78 (15:10) 0 0 0 0 0
10-11-2019 17.3 (14:20) 11.8 (00:00) 14.5 16.67 (13:00) 10.83 (13:00) 0 0 0 0 0
09-11-2019 19.5 (15:20) 12.2 (00:00) 15.8 13.33 (12:10) 8.89 (10:20) 0.4 0 0 0 0.4
08-11-2019 17.8 (15:20) 11.1 (00:00) 14.4 16.39 (01:40) 10.28 (14:00) 0 0 0 0 0
07-11-2019 23 (14:10) 10.5 (00:00) 16.8 10.83 (23:59) 7.22 (23:50) 0 0 0 0 0
06-11-2019 21.3 (15:00) 13.8 (00:00) 17.5 12.22 (10:50) 8.61 (11:00) 0 0 0 0 0
05-11-2019 20.7 (15:10) 15.3 (00:00) 18 13.61 (11:30) 9.17 (11:30) 0 0 0 0 0
04-11-2019 26.7 (15:40) 16.9 (00:00) 21.8 10.28 (00:30) 5.83 (00:30) 0 0 0 0 0
03-11-2019 26.2 (14:00) 18.2 (00:00) 22.2 19.72 (13:50) 10.83 (13:50) 0 0 0 0 0
02-11-2019 26.9 (15:30) 19.5 (00:00) 23.2 10.28 (13:50) 5.83 (13:10) 0 0 0 0 0
01-11-2019 28 (14:40) 18.8 (00:00) 23.4 11.11 (12:30) 6.39 (12:10) 0 0 0 0 0
31-10-2019 27.1 (15:40) 18.1 (00:00) 22.6 10.83 (12:50) 7.78 (12:50) 0 0 0 0 0
30-10-2019 26.3 (14:30) 15.5 (00:00) 20.9 6.67 (16:30) 4.17 (16:30) 0 0 0 0 0
29-10-2019 27.5 (15:10) 13.8 (00:00) 20.7 6.67 (18:40) 3.89 (18:40) 0 0 0 0 0
28-10-2019 22.3 (16:50) 13.2 (00:00) 17.7 5 (11:10) 3.33 (11:10) 0 0 0 0 0
27-10-2019 22.6 (15:20) 12.9 (00:00) 17.8 4.72 (16:00) 2.78 (10:30) 0 0 0 0 0
26-10-2019 23.4 (14:50) 12.1 (00:00) 17.8 5.28 (15:50) 3.06 (15:30) 0 0 0 0 0
25-10-2019 23.5 (15:20) 12.5 (00:00) 18 7.22 (00:40) 5 (00:40) 0 0 0 0 0
24-10-2019 21.1 (17:20) 12.7 (00:00) 16.9 13.89 (13:20) 8.33 (13:10) 0 0 0 0 0
23-10-2019 20.3 (15:10) 11.1 (00:00) 15.7 7.5 (18:40) 3.89 (18:40) 0 0 0 0 0
22-10-2019 16.2 (00:00) 12.6 (00:00) 14.4 10.28 (13:00) 6.39 (13:00) 30.6 22.6 6 2 0
21-10-2019 19.4 (16:40) 11.3 (00:00) 15.3 5.28 (10:50) 3.06 (10:50) 4.4 0 0 0 4.4
20-10-2019 21.8 (11:40) 15.6 (00:00) 18.7 9.72 (12:20) 5.56 (12:30) 0.2 0 0 0.2 0
19-10-2019 27 (14:00) 13.4 (00:00) 20.2 7.78 (14:40) 4.44 (14:40) 0 0 0 0 0
18-10-2019 27.7 (14:50) 14.1 (00:00) 20.9 6.67 (17:00) 3.89 (18:10) 0 0 0 0 0
17-10-2019 27.2 (15:20) 11.6 (00:00) 19.4 7.22 (17:10) 4.17 (16:20) 0 0 0 0 0
16-10-2019 24.3 (14:50) 9.8 (00:00) 17 6.94 (15:50) 4.17 (11:00) 0 0 0 0 0
15-10-2019 23.8 (17:30) 15.8 (00:00) 19.8 13.89 (11:30) 9.44 (11:30) 0 0 0 0 0
14-10-2019 25.1 (16:30) 17.8 (00:00) 21.4 9.17 (20:50) 3.89 (12:30) 2 0 0 2 0

Gráficas

Temp. máximas Temp. mínimas Temp. medias Precipitaciones Rachas de viento máximas Velocidades máximas media en intervalos de 10 minutos

Datos horarios

Fecha y hora oficial Temperatura (ºC) Velocidad del viento (km/h) Dirección del viento Racha (km/h) Dirección de racha Precipitación (mm) Presión (hPa) Tendencia (hPa) Humedad (%)
2019-11-12 23:00:00 14.2 12 Oeste 30 Oeste 0 -- -- 47
2019-11-12 22:00:00 15.5 21 Oeste 36 Oeste 0 -- -- 43
2019-11-12 21:00:00 15.7 22 Oeste 32 Oeste 0 -- -- 41
2019-11-12 20:00:00 15.7 13 Oeste 26 Oeste 0 -- -- 40
2019-11-12 19:00:00 16.6 14 Oeste 31 Oeste 0 -- -- 37
2019-11-12 18:00:00 17.4 21 Oeste 41 Oeste 0 -- -- 35
2019-11-12 17:00:00 18.4 30 Oeste 45 Oeste 0 -- -- 34
2019-11-12 16:00:00 18.8 28 Oeste 43 Oeste 0 -- -- 35
2019-11-12 15:00:00 19.4 17 Oeste 33 Oeste 0 -- -- 32
2019-11-12 14:00:00 19 5 Oeste 21 Noroeste 0 -- -- 30
2019-11-12 13:00:00 18.1 11 Noroeste 20 Noroeste 0 -- -- 32
2019-11-12 12:00:00 17.4 9 Noroeste 24 Noroeste 0 -- -- 37
2019-11-12 11:00:00 16.1 10 Noroeste 22 Noroeste 0 -- -- 38
2019-11-12 10:00:00 14.2 9 Noroeste 27 Oeste 0 -- -- 42
2019-11-12 09:00:00 12.3 12 Noroeste 26 Sudoeste 0 -- -- 46
2019-11-12 08:00:00 10.7 12 Oeste 20 Oeste 0 -- -- 49
2019-11-12 07:00:00 10.7 12 Oeste 23 Oeste 0 -- -- 50
2019-11-12 06:00:00 11.4 14 Oeste 28 Oeste 0 -- -- 52
2019-11-12 05:00:00 11.6 15 Oeste 25 Oeste 0 -- -- 53
2019-11-12 04:00:00 12 11 Oeste 23 Oeste 0 -- -- 55
2019-11-12 03:00:00 12.3 13 Noroeste 19 Oeste 0 -- -- 58
2019-11-12 02:00:00 12.8 2 Noroeste 31 Oeste 0 -- -- 59
2019-11-12 01:00:00 13.9 19 Oeste 27 Oeste 0 -- -- 57
2019-11-12 00:00:00 13.6 10 Oeste 27 Oeste 0 -- -- 61
2019-11-11 23:00:00 14.3 19 Oeste 25 Oeste 0 -- -- 59
2019-11-11 22:00:00 14.6 4 Noroeste 20 Noroeste 0 -- -- 57
2019-11-11 21:00:00 15.5 13 Oeste 24 Noroeste 0 -- -- 53
2019-11-11 20:00:00 15.6 15 Noroeste 29 Oeste 0 -- -- 51
2019-11-11 19:00:00 15.8 12 Oeste 19 Noroeste 0 -- -- 51
2019-11-11 18:00:00 16.2 12 Noroeste 27 Oeste 0 -- -- 49
2019-11-11 17:00:00 17.2 17 Noroeste 37 Oeste 0 -- -- 44
2019-11-11 16:00:00 17.7 18 Noroeste 42 Noroeste 0 -- -- 40
2019-11-11 15:00:00 17.9 26 Noroeste 43 Oeste 0 -- -- 39
2019-11-11 14:00:00 17.6 19 Noroeste 37 Oeste 0 -- -- 39
2019-11-11 13:00:00 16.3 26 Noroeste 41 Oeste 0 -- -- 42
2019-11-11 12:00:00 16.1 26 Noroeste 37 Oeste 0 -- -- 41
2019-11-11 11:00:00 15 19 Oeste 37 Noroeste 0 -- -- 43
2019-11-11 10:00:00 13.7 22 Oeste 35 Oeste 0 -- -- 46
2019-11-11 09:00:00 12.1 21 Oeste 32 Oeste 0 -- -- 50
2019-11-11 08:00:00 9.8 9 Oeste 25 Oeste 0 -- -- 54
2019-11-11 07:00:00 10.2 19 Oeste 26 Noroeste 0 -- -- 52
2019-11-11 06:00:00 9.9 14 Oeste 30 Oeste 0 -- -- 52
2019-11-11 05:00:00 10.5 18 Noroeste 32 Oeste 0 -- -- 50
2019-11-11 04:00:00 10.6 21 Oeste 30 Oeste 0 -- -- 51
2019-11-11 03:00:00 11.1 14 Oeste 26 Oeste 0 -- -- 48
2019-11-11 02:00:00 10.7 5 Oeste 28 Norte 0 -- -- 49
2019-11-11 01:00:00 12.2 17 Oeste 36 Oeste 0 -- -- 45
2019-11-11 00:00:00 12.6 16 Oeste 43 Oeste 0 -- -- 45
2019-11-10 23:00:00 13.1 31 Oeste 49 Oeste 0 -- -- 46
2019-11-10 22:00:00 13.7 31 Noroeste 50 Noroeste 0 -- -- 45
2019-11-10 21:00:00 14.3 26 Oeste 45 Oeste 0 -- -- 43
2019-11-10 20:00:00 14.8 31 Oeste 45 Oeste 0 -- -- 40
2019-11-10 19:00:00 15.1 26 Oeste 40 Oeste 0 -- -- 40
2019-11-10 18:00:00 15.7 21 Oeste 38 Oeste 0 -- -- 37
2019-11-10 17:00:00 16.1 23 Noroeste 41 Oeste 0 -- -- 36
2019-11-10 16:00:00 16.9 32 Noroeste 59 Noroeste 0 -- -- 34
2019-11-10 15:00:00 17.1 33 Noroeste 55 Oeste 0 -- -- 34
2019-11-10 14:00:00 17 36 Noroeste 60 Oeste 0 -- -- 34
2019-11-10 13:00:00 16.6 39 Noroeste 60 Noroeste 0 -- -- 34
2019-11-10 12:00:00 16.1 28 Oeste 45 Oeste 0 -- -- 39
2019-11-10 11:00:00 15.2 34 Oeste 57 Noroeste 0 -- -- 44
2019-11-10 10:00:00 15 34 Oeste 56 Oeste 0 -- -- 43
2019-11-10 09:00:00 13.6 22 Noroeste 44 Noroeste 0 -- -- 50
2019-11-10 08:00:00 12.1 22 Noroeste 40 Norte 0 -- -- 58
2019-11-10 07:00:00 12 26 Noroeste 51 Norte 0 -- -- 58
2019-11-10 06:00:00 15.1 19 Noroeste 41 Noroeste 0 -- -- 52
2019-11-10 05:00:00 15.8 19 Oeste 28 Noroeste 0 -- -- 54
2019-11-10 04:00:00 15.9 18 Oeste 37 Oeste 0 -- -- 54
2019-11-10 03:00:00 14.6 11 Oeste 22 Oeste 0 -- -- 62
2019-11-10 02:00:00 14.5 4 Sudoeste 17 Sudoeste 0 -- -- 63
2019-11-10 01:00:00 14.1 8 Sudoeste 20 Oeste 0 -- -- 66
2019-11-10 00:00:00 13.6 12 Oeste 23 Sudoeste 0 -- -- 68
2019-11-09 23:00:00 13.3 4 Oeste 27 Sudoeste 0.2 -- -- 72
2019-11-09 22:00:00 14 8 Sudoeste 15 Oeste 0.2 -- -- 65
2019-11-09 21:00:00 15.2 8 Oeste 15 Sudoeste 0 -- -- 56
2019-11-09 20:00:00 14.8 3 Sudoeste 22 Sudoeste 0 -- -- 59
2019-11-09 19:00:00 15.3 10 Sudoeste 31 Sur 0 -- -- 58
2019-11-09 18:00:00 16.4 16 Sur 32 Sudoeste 0 -- -- 43
2019-11-09 17:00:00 18.4 6 Sudoeste 26 Sudoeste 0 -- -- 36
2019-11-09 16:00:00 19.3 13 Sudoeste 27 Oeste 0 -- -- 33
2019-11-09 15:00:00 19.4 16 Oeste 29 Oeste 0 -- -- 31
2019-11-09 14:00:00 18.8 15 Oeste 39 Oeste 0 -- -- 32
2019-11-09 13:00:00 17.6 24 Oeste 48 Oeste 0 -- -- 34
2019-11-09 12:00:00 16.5 24 Oeste 38 Oeste 0 -- -- 38
2019-11-09 11:00:00 15.4 22 Oeste 46 Oeste 0 -- -- 41
2019-11-09 10:00:00 13.8 21 Oeste 35 Oeste 0 -- -- 44
2019-11-09 09:00:00 13.5 23 Oeste 36 Oeste 0 -- -- 45
2019-11-09 08:00:00 12.9 22 Oeste 41 Oeste 0 -- -- 45
2019-11-09 07:00:00 12.2 10 Oeste 36 Oeste 0 -- -- 47
2019-11-09 06:00:00 12.7 23 Oeste 33 Oeste 0 -- -- 46
2019-11-09 05:00:00 12.6 12 Oeste 24 Sudoeste 0 -- -- 46
2019-11-09 04:00:00 13.1 10 Oeste 27 Oeste 0 -- -- 45
2019-11-09 03:00:00 13.1 9 Oeste 28 Oeste 0 -- -- 45
2019-11-09 02:00:00 13.4 17 Oeste 33 Oeste 0 -- -- 45
2019-11-09 01:00:00 13.6 17 Oeste 29 Sudoeste 0 -- -- 45
2019-11-09 00:00:00 13.6 11 Sudoeste 32 Oeste 0 -- -- 46
2019-11-08 23:00:00 14.8 22 Oeste 35 Oeste 0 -- -- 42
2019-11-08 22:00:00 14.4 17 Oeste 34 Oeste 0 -- -- 42
2019-11-08 21:00:00 14.5 14 Sudoeste 28 Oeste 0 -- -- 40
2019-11-08 20:00:00 15 15 Oeste 29 Oeste 0 -- -- 38
2019-11-08 19:00:00 15.5 21 Oeste 34 Oeste 0 -- -- 36
2019-11-08 18:00:00 16.2 19 Oeste 32 Oeste 0 -- -- 35
2019-11-08 17:00:00 17.3 25 Noroeste 44 Oeste 0 -- -- 34
2019-11-08 16:00:00 17.6 28 Noroeste 46 Oeste 0 -- -- 34
2019-11-08 15:00:00 17.2 27 Oeste 50 Oeste 0 -- -- 35
2019-11-08 14:00:00 16.9 37 Oeste 56 Oeste 0 -- -- 35
2019-11-08 13:00:00 16.2 33 Noroeste 49 Noroeste 0 -- -- 37
2019-11-08 12:00:00 15.9 24 Noroeste 49 Oeste 0 -- -- 38
2019-11-08 11:00:00 14.6 30 Noroeste 50 Noroeste 0 -- -- 41
2019-11-08 10:00:00 13.7 28 Oeste 40 Oeste 0 -- -- 45
2019-11-08 09:00:00 12.9 15 Oeste 30 Noroeste 0 -- -- 48
2019-11-08 08:00:00 12 14 Oeste 32 Oeste 0 -- -- 51
2019-11-08 07:00:00 11.8 12 Oeste 21 Oeste 0 -- -- 54
2019-11-08 06:00:00 11.1 8 Oeste 20 Oeste 0 -- -- 60
2019-11-08 05:00:00 12 16 Noroeste 31 Noroeste 0 -- -- 57
2019-11-08 04:00:00 12.3 12 Oeste 27 Noroeste 0 -- -- 55
2019-11-08 03:00:00 13.5 20 Noroeste 48 Noroeste 0 -- -- 50
2019-11-08 02:00:00 15.4 35 Noroeste 59 Oeste 0 -- -- 42
2019-11-08 01:00:00 15.7 30 Oeste 48 Oeste 0 -- -- 42
2019-11-08 00:00:00 15.5 23 Oeste 39 Oeste 0 -- -- 41
2019-11-07 23:00:00 16.3 22 Oeste 36 Noroeste 0 -- -- 43
2019-11-07 22:00:00 16.9 19 Oeste 28 Oeste 0 -- -- 46
2019-11-07 21:00:00 17.2 16 Oeste 25 Oeste 0 -- -- 48
2019-11-07 20:00:00 18.7 13 Oeste 33 Oeste 0 -- -- 44
2019-11-07 19:00:00 18.5 13 Oeste 28 Sudoeste 0 -- -- 54
2019-11-07 18:00:00 18.5 12 Sur 21 Sudoeste 0 -- -- 61
2019-11-07 17:00:00 20.5 10 Sudoeste 23 Sudoeste 0 -- -- 54
2019-11-07 16:00:00 19.5 14 Sudoeste 23 Sur 0 -- -- 59
2019-11-07 15:00:00 21.9 7 Oeste 21 Oeste 0 -- -- 44
2019-11-07 14:00:00 22.6 7 Sudoeste 17 Sudoeste 0 -- -- 43
2019-11-07 13:00:00 21.2 9 Oeste 20 Sudoeste 0 -- -- 42
2019-11-07 12:00:00 19.8 9 Sudoeste 18 Noroeste 0 -- -- 45
2019-11-07 11:00:00 18.2 8 Oeste 17 Oeste 0 -- -- 47
2019-11-07 10:00:00 16 9 Sudoeste 19 Oeste 0 -- -- 52
2019-11-07 09:00:00 13.4 9 Sudoeste 16 Sudoeste 0 -- -- 59
2019-11-07 08:00:00 12.7 11 Sudoeste 18 Sudoeste 0 -- -- 57
2019-11-07 07:00:00 12 8 Sudoeste 14 Sudoeste 0 -- -- 59
2019-11-07 06:00:00 10.9 3 Oeste 14 Sudoeste 0 -- -- 64
2019-11-07 05:00:00 11.6 8 Oeste 18 Oeste 0 -- -- 61
2019-11-07 04:00:00 12.8 12 Sudoeste 21 Oeste 0 -- -- 56
2019-11-07 03:00:00 12.8 10 Sudoeste 22 Oeste 0 -- -- 57
2019-11-07 02:00:00 13.2 9 Oeste 19 Sudoeste 0 -- -- 56
2019-11-07 01:00:00 14.1 10 Sudoeste 21 Oeste 0 -- -- 53
2019-11-07 00:00:00 14.5 12 Sudoeste 24 Oeste 0 -- -- 51
2019-11-06 23:00:00 14.4 10 Oeste 24 Oeste 0 -- -- 52
2019-11-06 22:00:00 14.4 10 Oeste 17 Oeste 0 -- -- 53
2019-11-06 21:00:00 15.1 10 Oeste 19 Oeste 0 -- -- 51
2019-11-06 20:00:00 16.3 9 Sudoeste 16 Sudoeste 0 -- -- 47
2019-11-06 19:00:00 16.8 8 Sudoeste 14 Oeste 0 -- -- 45
2019-11-06 18:00:00 18.6 8 Oeste 20 Oeste 0 -- -- 41
2019-11-06 17:00:00 20.5 17 Noroeste 35 Noroeste 0 -- -- 35
2019-11-06 16:00:00 21.1 21 Noroeste 36 Noroeste 0 -- -- 35
2019-11-06 15:00:00 21.3 18 Noroeste 34 Oeste 0 -- -- 33
2019-11-06 14:00:00 20.7 21 Noroeste 40 Oeste 0 -- -- 36
2019-11-06 13:00:00 19.9 24 Noroeste 41 Oeste 0 -- -- 39
2019-11-06 12:00:00 18.8 25 Noroeste 42 Oeste 0 -- -- 41
2019-11-06 11:00:00 17.7 31 Oeste 44 Oeste 0 -- -- 45
2019-11-06 10:00:00 16.8 20 Oeste 36 Oeste 0 -- -- 47
2019-11-06 09:00:00 15.6 24 Oeste 37 Oeste 0 -- -- 50
2019-11-06 08:00:00 14.8 17 Oeste 34 Noroeste 0 -- -- 52
2019-11-06 07:00:00 14.8 25 Oeste 40 Oeste 0 -- -- 53
2019-11-06 06:00:00 14.7 18 Noroeste 29 Oeste 0 -- -- 55
2019-11-06 05:00:00 14.1 10 Oeste 19 Oeste 0 -- -- 58
2019-11-06 04:00:00 14.2 8 Oeste 15 Oeste 0 -- -- 57
2019-11-06 03:00:00 14.2 9 Noroeste 22 Oeste 0 -- -- 59
2019-11-06 02:00:00 14.9 15 Oeste 25 Oeste 0 -- -- 57
2019-11-06 01:00:00 14.4 6 Sudoeste 20 Sudoeste 0 -- -- 61
2019-11-06 00:00:00 15.3 9 Oeste 26 Oeste 0 -- -- 57
2019-11-05 23:00:00 15.3 14 Oeste 27 Oeste 0 -- -- 54
2019-11-05 22:00:00 15.6 15 Oeste 27 Sudoeste 0 -- -- 52
2019-11-05 21:00:00 16.5 12 Oeste 22 Noroeste 0 -- -- 51
2019-11-05 20:00:00 17.2 12 Oeste 30 Oeste 0 -- -- 48
2019-11-05 19:00:00 18 18 Oeste 37 Oeste 0 -- -- 45
2019-11-05 18:00:00 18.7 12 Oeste 30 Oeste 0 -- -- 43
2019-11-05 17:00:00 20.3 19 Oeste 37 Oeste 0 -- -- 38
2019-11-05 16:00:00 20.7 22 Oeste 38 Oeste 0 -- -- 36
2019-11-05 15:00:00 20.6 22 Oeste 46 Oeste 0 -- -- 36
2019-11-05 14:00:00 20.5 26 Oeste 46 Oeste 0 -- -- 36
2019-11-05 13:00:00 19.6 30 Oeste 47 Oeste 0 -- -- 38
2019-11-05 12:00:00 19.4 33 Oeste 49 Noroeste 0 -- -- 38
2019-11-05 11:00:00 19.1 31 Oeste 49 Oeste 0 -- -- 41
2019-11-05 10:00:00 18.6 29 Oeste 45 Oeste 0 -- -- 44
2019-11-05 09:00:00 18 21 Oeste 34 Oeste 0 -- -- 48
2019-11-05 08:00:00 17.3 15 Oeste 32 Noroeste 0 -- -- 56
2019-11-05 07:00:00 17.5 10 Oeste 26 Oeste 0 -- -- 58
2019-11-05 06:00:00 18 20 Oeste 31 Oeste 0 -- -- 55
2019-11-05 05:00:00 17.6 20 Noroeste 31 Noroeste 0 -- -- 67
2019-11-05 04:00:00 16.5 4 Oeste 9 Oeste 0 -- -- 61
2019-11-05 03:00:00 18.4 6 Sudoeste 27 Sudoeste 0 -- -- 53
2019-11-05 02:00:00 19 13 Sudoeste 26 Sudoeste 0 -- -- 51
2019-11-05 01:00:00 18.9 12 Sur 24 Sudoeste 0 -- -- 51
2019-11-05 00:00:00 19.6 12 Sur 23 Sudoeste 0 -- -- 47
2019-11-04 23:00:00 19.1 10 Sur 22 Sudoeste 0 -- -- 50
2019-11-04 22:00:00 19.5 10 Sur 17 Sur 0 -- -- 51
2019-11-04 21:00:00 20.7 13 Oeste 27 Oeste 0 -- -- 48
2019-11-04 20:00:00 21.8 14 Oeste 28 Norte 0 -- -- 44
2019-11-04 19:00:00 22.3 14 Oeste 24 Oeste 0 -- -- 46
2019-11-04 18:00:00 23.3 8 Oeste 24 Oeste 0 -- -- 44
2019-11-04 17:00:00 25.7 11 Noroeste 26 Oeste 0 -- -- 42
2019-11-04 16:00:00 26.4 12 Noroeste 18 Oeste 0 -- -- 42
2019-11-04 15:00:00 26.4 11 Noroeste 20 Oeste 0 -- -- 45
2019-11-04 14:00:00 25.8 12 Oeste 23 Oeste 0 -- -- 45
2019-11-04 13:00:00 25.1 11 Oeste 22 Oeste 0 -- -- 46
2019-11-04 12:00:00 24.2 8 Oeste 18 Sudoeste 0 -- -- 50
2019-11-04 11:00:00 23.2 7 Sudoeste 16 Sudoeste 0 -- -- 54
2019-11-04 10:00:00 21.8 3 Sur 14 Sur 0 -- -- 57
2019-11-04 09:00:00 19.3 6 Sudoeste 17 Sudoeste 0 -- -- 60
2019-11-04 08:00:00 17.6 10 Sudoeste 21 Sudoeste 0 -- -- 62
2019-11-04 07:00:00 17.2 9 Sudoeste 19 Sudoeste 0 -- -- 60
2019-11-04 06:00:00 18.4 11 Sur 25 Sudoeste 0 -- -- 54
2019-11-04 05:00:00 18.8 12 Sur 23 Sudoeste 0 -- -- 52
2019-11-04 04:00:00 19.2 13 Oeste 26 Sudoeste 0 -- -- 51
2019-11-04 03:00:00 19.1 10 Sur 28 Oeste 0 -- -- 51
2019-11-04 02:00:00 19.3 7 Sudoeste 29 Oeste 0 -- -- 50
2019-11-04 01:00:00 19.8 12 Oeste 37 Oeste 0 -- -- 48
2019-11-04 00:00:00 20.3 18 Oeste 34 Noroeste 0 -- -- 48
2019-11-03 23:00:00 20.3 20 Noroeste 37 Noroeste 0 -- -- 50
2019-11-03 22:00:00 20.8 19 Noroeste 26 Oeste 0 -- -- 50
2019-11-03 21:00:00 21.2 10 Oeste 24 Oeste 0 -- -- 50
2019-11-03 20:00:00 22.3 14 Oeste 39 Noroeste 0 -- -- 46
2019-11-03 19:00:00 22.9 24 Oeste 38 Oeste 0 -- -- 44
2019-11-03 18:00:00 23.2 18 Oeste 50 Oeste 0 -- -- 43
2019-11-03 17:00:00 24.6 25 Oeste 58 Oeste 0 -- -- 42
2019-11-03 16:00:00 25.6 30 Oeste 53 Oeste 0 -- -- 41
2019-11-03 15:00:00 25.6 35 Oeste 63 Oeste 0 -- -- 39
2019-11-03 14:00:00 26.2 35 Oeste 71 Oeste 0 -- -- 38
2019-11-03 13:00:00 25.8 19 Oeste 39 Oeste 0 -- -- 42
2019-11-03 12:00:00 24.7 14 Oeste 34 Sudoeste 0 -- -- 44
2019-11-03 11:00:00 23.2 10 Sudoeste 26 Sudoeste 0 -- -- 49
2019-11-03 10:00:00 22.8 13 Sudoeste 28 Sudoeste 0 -- -- 47
2019-11-03 09:00:00 20 3 Oeste 12 Sudoeste 0 -- -- 52
2019-11-03 08:00:00 18.4 6 Sudoeste 10 Sudoeste 0 -- -- 55
2019-11-03 07:00:00 18.5 8 Sudoeste 12 Sudoeste 0 -- -- 58
2019-11-03 06:00:00 20.3 6 Oeste 22 Sudoeste 0 -- -- 58
2019-11-03 05:00:00 19.7 6 Sudoeste 13 Sudoeste 0 -- -- 61
2019-11-03 04:00:00 20.4 6 Oeste 16 Sudoeste 0 -- -- 58
2019-11-03 03:00:00 20.2 7 Sudoeste 16 Sudoeste 0 -- -- 58
2019-11-03 02:00:00 19.3 7 Sudoeste 12 Sudoeste 0 -- -- 62
2019-11-03 01:00:00 19.2 5 Sudoeste 13 Sudoeste 0 -- -- 61
2019-11-03 00:00:00 19.5 5 Sudoeste 12 Sudoeste 0 -- -- 58
2019-11-02 23:00:00 20.4 8 Sudoeste 15 Sudoeste 0 -- -- 54
2019-11-02 22:00:00 21.5 11 Sudoeste 22 Sudoeste 0 -- -- 49
2019-11-02 21:00:00 21.5 11 Sudoeste 20 Sudoeste 0 -- -- 49
2019-11-02 20:00:00 21.9 10 Sudoeste 20 Oeste 0 -- -- 48
2019-11-02 19:00:00 23 13 Oeste 22 Oeste 0 -- -- 45
2019-11-02 18:00:00 24.1 7 Oeste 17 Oeste 0 -- -- 48
2019-11-02 17:00:00 26.2 13 Oeste 27 Noroeste 0 -- -- 40
2019-11-02 16:00:00 26.5 14 Oeste 25 Sudoeste 0 -- -- 42
2019-11-02 15:00:00 26.5 16 Oeste 30 Oeste 0 -- -- 44
2019-11-02 14:00:00 25.7 16 Oeste 37 Sudoeste 0 -- -- 47
2019-11-02 13:00:00 24.2 17 Oeste 35 Oeste 0 -- -- 52
2019-11-02 12:00:00 23.3 12 Sudoeste 27 Sudoeste 0 -- -- 55
2019-11-02 11:00:00 24 8 Oeste 22 Oeste 0 -- -- 54
2019-11-02 10:00:00 23.8 8 Sudoeste 20 Oeste 0 -- -- 54
2019-11-02 09:00:00 22.4 9 Sudoeste 19 Sudoeste 0 -- -- 57
2019-11-02 08:00:00 21.3 12 Sudoeste 19 Oeste 0 -- -- 56
2019-11-02 07:00:00 20.7 9 Sudoeste 18 Sudoeste 0 -- -- 59
2019-11-02 06:00:00 20.8 9 Sudoeste 18 Oeste 0 -- -- 59
2019-11-02 05:00:00 21.2 9 Sudoeste 17 Sudoeste 0 -- -- 58
2019-11-02 04:00:00 21.1 8 Sudoeste 15 Sudoeste 0 -- -- 60
2019-11-02 03:00:00 22.3 10 Oeste 25 Oeste 0 -- -- 58
2019-11-02 02:00:00 21.7 12 Oeste 20 Sudoeste 0 -- -- 62
2019-11-02 01:00:00 21.4 3 Sur 18 Oeste 0 -- -- 65
2019-11-02 00:00:00 22.2 10 Oeste 18 Oeste 0 -- -- 62
2019-11-01 23:00:00 23.2 8 Sudoeste 22 Sudoeste 0 -- -- 59
2019-11-01 22:00:00 23.3 11 Oeste 21 Oeste 0 -- -- 59
2019-11-01 21:00:00 23.8 12 Oeste 30 Oeste 0 -- -- 57
2019-11-01 20:00:00 24.7 14 Oeste 32 Oeste 0 -- -- 53
2019-11-01 19:00:00 25.1 15 Oeste 29 Oeste 0 -- -- 52
2019-11-01 18:00:00 25.4 6 Sudoeste 13 Sudoeste 0 -- -- 55
2019-11-01 17:00:00 27.2 10 Oeste 23 Oeste 0 -- -- 49
2019-11-01 16:00:00 27.6 13 Oeste 27 Oeste 0 -- -- 46
2019-11-01 15:00:00 27.7 18 Oeste 34 Oeste 0 -- -- 47
2019-11-01 14:00:00 27.8 18 Oeste 32 Oeste 0 -- -- 46
2019-11-01 13:00:00 27.1 14 Noroeste 40 Oeste 0 -- -- 51
2019-11-01 12:00:00 26.1 21 Oeste 33 Oeste 0 -- -- 53
2019-11-01 11:00:00 24.9 18 Oeste 31 Oeste 0 -- -- 58
2019-11-01 10:00:00 22.3 12 Oeste 22 Oeste 0 -- -- 66
2019-11-01 09:00:00 21.5 5 Sudoeste 14 Sudoeste 0 -- -- 69
2019-11-01 08:00:00 20.9 9 Oeste 21 Sudoeste 0 -- -- 67
2019-11-01 07:00:00 21.4 9 Oeste 25 Oeste 0 -- -- 64
2019-11-01 06:00:00 20.5 19 Oeste 28 Sudoeste 0 -- -- 66
2019-11-01 05:00:00 19.4 6 Oeste 14 Oeste 0 -- -- 71
2019-11-01 04:00:00 19.8 6 Oeste 18 Oeste 0 -- -- 69
2019-11-01 03:00:00 20 11 Oeste 17 Oeste 0 -- -- 69
2019-11-01 02:00:00 20.3 6 Oeste 16 Oeste 0 -- -- 68
2019-11-01 01:00:00 20.3 11 Oeste 18 Oeste 0 -- -- 67
2019-11-01 00:00:00 21 7 Sudoeste 23 Sudoeste 0 -- -- 65
2019-10-31 23:00:00 21.5 9 Sudoeste 20 Oeste 0 -- -- 63
2019-10-31 22:00:00 22.2 9 Oeste 19 Oeste 0 -- -- 60
2019-10-31 21:00:00 23.3 9 Oeste 22 Oeste 0 -- -- 55
2019-10-31 20:00:00 23.8 10 Oeste 19 Oeste 0 -- -- 53
2019-10-31 19:00:00 23.6 6 Oeste 13 Oeste 0 -- -- 56
2019-10-31 18:00:00 24.6 2 Oeste 12 Sudoeste 0 -- -- 58
2019-10-31 17:00:00 25.9 6 Oeste 22 Oeste 0 -- -- 52
2019-10-31 16:00:00 27 18 Oeste 33 Oeste 0 -- -- 47
2019-10-31 15:00:00 25.7 21 Oeste 37 Oeste 0 -- -- 51
2019-10-31 14:00:00 26.2 25 Oeste 39 Oeste 0 -- -- 49
2019-10-31 13:00:00 26 23 Noroeste 39 Oeste 0 -- -- 52
2019-10-31 12:00:00 25.6 22 Noroeste 38 Noroeste 0 -- -- 51
2019-10-31 11:00:00 24.2 19 Oeste 26 Oeste 0 -- -- 57
2019-10-31 10:00:00 23.1 13 Oeste 22 Oeste 0 -- -- 60
2019-10-31 09:00:00 21.1 10 Sudoeste 18 Oeste 0 -- -- 65
2019-10-31 08:00:00 19.7 10 Sudoeste 22 Oeste 0 -- -- 67
2019-10-31 07:00:00 19.8 8 Oeste 21 Oeste 0 -- -- 66
2019-10-31 06:00:00 19.8 9 Oeste 20 Sudoeste 0 -- -- 67
2019-10-31 05:00:00 19.4 9 Sudoeste 19 Oeste 0 -- -- 69
2019-10-31 04:00:00 18.9 2 Noroeste 17 Sudoeste 0 -- -- 73
2019-10-31 03:00:00 19.4 6 Oeste 15 Sudoeste 0 -- -- 70
2019-10-31 02:00:00 19.9 9 Sudoeste 17 Sudoeste 0 -- -- 67
2019-10-31 01:00:00 19.2 8 Sudoeste 14 Sudoeste 0 -- -- 76
2019-10-31 00:00:00 18.1 6 Sudoeste 10 Sudoeste 0 -- -- 89
2019-10-30 23:00:00 18.7 5 Sudoeste 9 Sudoeste 0 -- -- 91
2019-10-30 22:00:00 18.5 5 Sudoeste 9 Oeste 0 -- -- 91
2019-10-30 21:00:00 18.4 5 Sudoeste 6 Sudoeste 0 -- -- 89
2019-10-30 20:00:00 19.4 0 Calma 8 Sudeste 0 -- -- 84
2019-10-30 19:00:00 20.6 3 Noroeste 18 Sur 0 -- -- 80
2019-10-30 18:00:00 21.9 13 Sur 22 Sur 0 -- -- 76
2019-10-30 17:00:00 22.7 15 Sur 24 Sudeste 0 -- -- 65
2019-10-30 16:00:00 24.1 12 Sudeste 22 Sudeste 0 -- -- 65
2019-10-30 15:00:00 25.9 10 Sudeste 18 Sudeste 0 -- -- 59
2019-10-30 14:00:00 25.8 4 Oeste 10 Noroeste 0 -- -- 52
2019-10-30 13:00:00 24.2 5 Oeste 10 Noroeste 0 -- -- 56
2019-10-30 12:00:00 23.2 3 Este 9 Noroeste 0 -- -- 59
2019-10-30 11:00:00 21.7 5 Noroeste 13 Noroeste 0 -- -- 67
2019-10-30 10:00:00 19.5 8 Oeste 13 Oeste 0 -- -- 73
2019-10-30 09:00:00 17.7 6 Oeste 10 Oeste 0 -- -- 78
2019-10-30 08:00:00 16.3 4 Oeste 16 Oeste 0 -- -- 81
2019-10-30 07:00:00 16.4 8 Oeste 17 Oeste 0 -- -- 81
2019-10-30 06:00:00 16.5 8 Oeste 15 Oeste 0 -- -- 81
2019-10-30 05:00:00 16.2 8 Oeste 15 Oeste 0 -- -- 83
2019-10-30 04:00:00 15.6 6 Oeste 13 Oeste 0 -- -- 86
2019-10-30 03:00:00 15.9 6 Oeste 12 Oeste 0 -- -- 85
2019-10-30 02:00:00 16.1 5 Oeste 7 Oeste 0 -- -- 87
2019-10-30 01:00:00 16.9 6 Oeste 9 Oeste 0 -- -- 85
2019-10-30 00:00:00 17.4 4 Oeste 9 Oeste 0 -- -- 88
2019-10-29 23:00:00 18.2 0 Calma 9 Sudoeste 0 -- -- 91
2019-10-29 22:00:00 18.5 2 Sudoeste 4 Este 0 -- -- 91
2019-10-29 21:00:00 18.7 0 Calma 4 Noroeste 0 -- -- 83
2019-10-29 20:00:00 20.4 0 Calma 20 Sur 0 -- -- 76
2019-10-29 19:00:00 21.9 13 Sur 24 Sur 0 -- -- 69
2019-10-29 18:00:00 22.7 12 Sur 22 Sur 0 -- -- 72
2019-10-29 17:00:00 24.6 12 Sur 19 Sur 0 -- -- 67
2019-10-29 16:00:00 26.5 8 Sur 18 Sur 0 -- -- 57
2019-10-29 15:00:00 27.3 6 Sudoeste 14 Sudoeste 0 -- -- 46
2019-10-29 14:00:00 26.3 5 Sudoeste 15 Oeste 0 -- -- 51
2019-10-29 13:00:00 24.9 8 Sudoeste 15 Oeste 0 -- -- 57
2019-10-29 12:00:00 23.2 10 Oeste 19 Oeste 0 -- -- 59
2019-10-29 11:00:00 21.4 8 Oeste 15 Sudoeste 0 -- -- 63
2019-10-29 10:00:00 18.3 6 Oeste 13 Oeste 0 -- -- 80
2019-10-29 09:00:00 15.1 4 Oeste 10 Oeste 0 -- -- 94
2019-10-29 08:00:00 14.1 3 Oeste 5 Oeste 0 -- -- 95
2019-10-29 07:00:00 14.1 0 Calma 9 Sudoeste 0 -- -- 95
2019-10-29 06:00:00 14.3 4 Sudoeste 6 Oeste 0 -- -- 95
2019-10-29 05:00:00 14.3 3 Sudoeste 7 Sudoeste 0 -- -- 95
2019-10-29 04:00:00 14.4 4 Sudoeste 6 Sudoeste 0 -- -- 93
2019-10-29 03:00:00 15.4 0 Calma 7 Sudoeste 0 -- -- 94
2019-10-29 02:00:00 15.3 4 Sudoeste 6 Sudoeste 0 -- -- 92
2019-10-29 01:00:00 16.6 2 Oeste 13 Sur 0 -- -- 90
2019-10-29 00:00:00 16.3 4 Sudoeste 9 Sudoeste 0 -- -- 92
2019-10-28 23:00:00 16.8 3 Oeste 12 Oeste 0 -- -- 87
2019-10-28 22:00:00 17.3 3 Oeste 11 Sudoeste 0 -- -- 85
2019-10-28 21:00:00 18.4 10 Sur 15 Sur 0 -- -- 81
2019-10-28 20:00:00 18.7 9 Sur 14 Sur 0 -- -- 80
2019-10-28 19:00:00 19.4 9 Sur 15 Sur 0 -- -- 79
2019-10-28 18:00:00 21 7 Sur 14 Sudoeste 0 -- -- 74
2019-10-28 17:00:00 22.3 8 Sudoeste 14 Sur 0 -- -- 70
2019-10-28 16:00:00 21.3 4 Sudoeste 12 Sudoeste 0 -- -- 74
2019-10-28 15:00:00 21.7 7 Sudoeste 12 Sudoeste 0 -- -- 71
2019-10-28 14:00:00 21.4 6 Oeste 13 Oeste 0 -- -- 71
2019-10-28 13:00:00 21.1 7 Oeste 16 Noroeste 0 -- -- 73
2019-10-28 12:00:00 20.6 6 Oeste 18 Oeste 0 -- -- 76
2019-10-28 11:00:00 19.9 7 Oeste 15 Oeste 0 -- -- 80
2019-10-28 10:00:00 16.5 7 Oeste 11 Oeste 0 -- -- 95
2019-10-28 09:00:00 14.3 0 Calma 4 Oeste 0 -- -- 97
2019-10-28 08:00:00 13.4 3 Oeste 9 Oeste 0 -- -- 96
2019-10-28 07:00:00 13.2 4 Oeste 8 Oeste 0 -- -- 96
2019-10-28 06:00:00 13.6 4 Oeste 9 Oeste 0 -- -- 96
2019-10-28 05:00:00 13.6 6 Oeste 12 Sudoeste 0 -- -- 96
2019-10-28 04:00:00 13.4 0 Calma 6 Oeste 0 -- -- 95
2019-10-28 03:00:00 14.1 4 Sudoeste 8 Oeste 0 -- -- 95
2019-10-28 02:00:00 14.3 0 Calma 4 Sudoeste 0 -- -- 95
2019-10-28 01:00:00 14.7 4 Sudoeste 6 Sudoeste 0 -- -- 94
2019-10-28 00:00:00 15.1 3 Oeste 6 Oeste 0 -- -- 93
2019-10-27 23:00:00 15.5 0 Calma 4 Oeste 0 -- -- 93
2019-10-27 22:00:00 15.8 3 Sudoeste 5 Oeste 0 -- -- 91
2019-10-27 21:00:00 16.2 4 Oeste 5 Oeste 0 -- -- 89
2019-10-27 20:00:00 17.2 2 Sur 5 Sur 0 -- -- 85
2019-10-27 19:00:00 18 2 Sudeste 8 Sudeste 0 -- -- 82
2019-10-27 18:00:00 19.9 4 Sur 10 Sudeste 0 -- -- 75
2019-10-27 17:00:00 21.1 5 Sudeste 17 Este 0 -- -- 69
2019-10-27 16:00:00 22.1 9 Sudeste 17 Sudeste 0 -- -- 66
2019-10-27 15:00:00 22.2 8 Este 13 Nordeste 0 -- -- 66
2019-10-27 14:00:00 21.7 2 Este 12 Oeste 0 -- -- 69
2019-10-27 13:00:00 22.5 4 Sudoeste 8 Sudoeste 0 -- -- 67
2019-10-27 12:00:00 21 4 Norte 9 Nordeste 0 -- -- 74
2019-10-27 11:00:00 18.9 4 Oeste 15 Oeste 0 -- -- 82
2019-10-27 10:00:00 16.9 9 Oeste 14 Oeste 0 -- -- 91
2019-10-27 09:00:00 14.3 4 Oeste 10 Oeste 0 -- -- 96
2019-10-27 08:00:00 13.1 5 Oeste 8 Oeste 0 -- -- 96
2019-10-27 07:00:00 13.4 2 Noroeste 8 Oeste 0 -- -- 96
2019-10-27 06:00:00 14.1 5 Oeste 8 Oeste 0 -- -- 96
2019-10-27 05:00:00 13.6 3 Noroeste 10 Oeste 0 -- -- 95
2019-10-27 04:00:00 14.2 6 Oeste 12 Oeste 0 -- -- 95
2019-10-27 03:00:00 14.4 4 Oeste 9 Sudoeste 0 -- -- 95
2019-10-27 02:00:00 14.7 5 Oeste 8 Oeste 0 -- -- 95
2019-10-27 01:00:00 15.3 3 Sudoeste 5 Sudoeste 0 -- -- 94
2019-10-27 00:00:00 15.7 0 Calma 5 Sudoeste 0 -- -- 93
2019-10-26 23:00:00 16.2 3 Oeste 6 Sudoeste 0 -- -- 92
2019-10-26 22:00:00 16.6 0 Calma 0 Calma 0 -- -- 92
2019-10-26 21:00:00 17 0 Calma 4 Este 0 -- -- 89
2019-10-26 20:00:00 18.1 0 Calma 6 Sur 0 -- -- 85
2019-10-26 19:00:00 20.2 3 Este 12 Sudeste 0 -- -- 76
2019-10-26 18:00:00 21.5 6 Sudeste 17 Este 0 -- -- 71
2019-10-26 17:00:00 22.4 9 Sudeste 18 Sudeste 0 -- -- 68
2019-10-26 16:00:00 22.7 11 Sudeste 19 Sudeste 0 -- -- 66
2019-10-26 15:00:00 23.4 9 Sudeste 17 Este 0 -- -- 62
2019-10-26 14:00:00 22.8 3 Este 10 Oeste 0 -- -- 57
2019-10-26 13:00:00 21.4 3 Norte 8 Noroeste 0 -- -- 62
2019-10-26 12:00:00 19.5 3 Noroeste 10 Oeste 0 -- -- 71
2019-10-26 11:00:00 17.1 6 Oeste 11 Oeste 0 -- -- 77
2019-10-26 10:00:00 13.9 5 Oeste 12 Oeste 0 -- -- 87
2019-10-26 09:00:00 12.2 4 Oeste 7 Oeste 0 -- -- 91
2019-10-26 08:00:00 12.4 0 Calma 10 Sudoeste 0 -- -- 89
2019-10-26 07:00:00 12.7 5 Oeste 9 Sudoeste 0 -- -- 90
2019-10-26 06:00:00 12.4 4 Oeste 12 Oeste 0 -- -- 90
2019-10-26 05:00:00 12.8 6 Oeste 12 Oeste 0 -- -- 90
2019-10-26 04:00:00 12.9 4 Oeste 6 Oeste 0 -- -- 88
2019-10-26 03:00:00 13.7 0 Calma 8 Oeste 0 -- -- 84
2019-10-26 02:00:00 15.2 6 Oeste 12 Sudoeste 0 -- -- 78
2019-10-26 01:00:00 15.9 7 Oeste 12 Sudoeste 0 -- -- 78
2019-10-26 00:00:00 15.2 8 Sudoeste 10 Sudoeste 0 -- -- 83
2019-10-25 23:00:00 16 3 Oeste 9 Oeste 0 -- -- 77
2019-10-25 22:00:00 16.7 0 Calma 16 Sur 0 -- -- 76
2019-10-25 21:00:00 18.4 10 Sudeste 18 Sur 0 -- -- 71
2019-10-25 20:00:00 19.3 10 Sur 17 Sur 0 -- -- 68
2019-10-25 19:00:00 20.3 8 Sur 18 Sur 0 -- -- 68
2019-10-25 18:00:00 21.6 10 Sur 23 Sudeste 0 -- -- 59
2019-10-25 17:00:00 22.3 11 Sur 19 Sur 0 -- -- 53
2019-10-25 16:00:00 23.1 10 Sudeste 18 Sur 0 -- -- 47
2019-10-25 15:00:00 23.4 6 Sudeste 14 Sudeste 0 -- -- 52
2019-10-25 14:00:00 22.4 5 Noroeste 13 Oeste 0 -- -- 50
2019-10-25 13:00:00 21 6 Noroeste 18 Oeste 0 -- -- 52
2019-10-25 12:00:00 19.3 10 Oeste 19 Oeste 0 -- -- 56
2019-10-25 11:00:00 17.6 9 Oeste 19 Oeste 0 -- -- 62
2019-10-25 10:00:00 15.6 10 Oeste 20 Oeste 0 -- -- 68
2019-10-25 09:00:00 12.8 6 Oeste 11 Oeste 0 -- -- 77
2019-10-25 08:00:00 12.6 6 Oeste 13 Oeste 0 -- -- 77
2019-10-25 07:00:00 13.3 7 Oeste 14 Oeste 0 -- -- 74
2019-10-25 06:00:00 13.8 8 Oeste 12 Oeste 0 -- -- 72
2019-10-25 05:00:00 14 7 Oeste 13 Oeste 0 -- -- 71
2019-10-25 04:00:00 15 6 Sudoeste 16 Sudoeste 0 -- -- 66
2019-10-25 03:00:00 15.2 7 Sudoeste 17 Oeste 0 -- -- 66
2019-10-25 02:00:00 15.9 9 Oeste 18 Oeste 0 -- -- 63
2019-10-25 01:00:00 17.4 13 Oeste 26 Oeste 0 -- -- 56
2019-10-25 00:00:00 18.1 8 Oeste 25 Sur 0 -- -- 52
2019-10-24 23:00:00 17.6 9 Oeste 16 Oeste 0 -- -- 53
2019-10-24 22:00:00 17.6 9 Oeste 21 Sudoeste 0 -- -- 54
2019-10-24 21:00:00 17.9 10 Oeste 17 Oeste 0 -- -- 53
2019-10-24 20:00:00 18 8 Sudoeste 18 Noroeste 0 -- -- 54
2019-10-24 19:00:00 19.5 13 Noroeste 32 Oeste 0 -- -- 51
2019-10-24 18:00:00 21 15 Noroeste 33 Noroeste 0 -- -- 46
2019-10-24 17:00:00 20.9 21 Noroeste 37 Oeste 0 -- -- 48
2019-10-24 16:00:00 20.6 22 Oeste 39 Oeste 0 -- -- 47
2019-10-24 15:00:00 20.2 26 Oeste 45 Oeste 0 -- -- 50
2019-10-24 14:00:00 19.5 27 Oeste 50 Oeste 0 -- -- 52
2019-10-24 13:00:00 19.4 28 Oeste 47 Oeste 0 -- -- 52
2019-10-24 12:00:00 18.9 21 Noroeste 36 Oeste 0 -- -- 53
2019-10-24 11:00:00 17.2 16 Oeste 27 Oeste 0 -- -- 61
2019-10-24 10:00:00 15.7 10 Oeste 23 Oeste 0 -- -- 65
2019-10-24 09:00:00 13.6 10 Oeste 28 Oeste 0 -- -- 72
2019-10-24 08:00:00 12.9 12 Sudoeste 22 Oeste 0 -- -- 74
2019-10-24 07:00:00 12.9 9 Sudoeste 17 Oeste 0 -- -- 72
2019-10-24 06:00:00 13.5 7 Sudoeste 23 Oeste 0 -- -- 69
2019-10-24 05:00:00 13 7 Oeste 21 Sudoeste 0 -- -- 72
2019-10-24 04:00:00 13.3 9 Sudoeste 18 Sudoeste 0 -- -- 69
2019-10-24 03:00:00 13.7 9 Sudoeste 17 Sudoeste 0 -- -- 68
2019-10-24 02:00:00 13.5 8 Sudoeste 16 Oeste 0 -- -- 73
2019-10-24 01:00:00 14.2 8 Sudoeste 15 Sudoeste 0 -- -- 69
2019-10-24 00:00:00 14.9 7 Oeste 15 Sudoeste 0 -- -- 67
2019-10-23 23:00:00 14.8 4 Sudoeste 13 Sudoeste 0 -- -- 66
2019-10-23 22:00:00 15 7 Sudoeste 11 Sudoeste 0 -- -- 63
2019-10-23 21:00:00 15.1 7 Sudoeste 11 Sudoeste 0 -- -- 64
2019-10-23 20:00:00 15.2 2 Oeste 10 Oeste 0 -- -- 68
2019-10-23 19:00:00 16.9 6 Noroeste 27 Noroeste 0 -- -- 62
2019-10-23 18:00:00 18.8 4 Sudoeste 15 Sudoeste 0 -- -- 59
2019-10-23 17:00:00 19.5 7 Sur 12 Sur 0 -- -- 58
2019-10-23 16:00:00 19.2 10 Sudeste 16 Sudeste 0 -- -- 56
2019-10-23 15:00:00 20 4 Sur 18 Oeste 0 -- -- 53
2019-10-23 14:00:00 18.8 7 Sudoeste 15 Oeste 0 -- -- 56
2019-10-23 13:00:00 17.4 4 Oeste 13 Oeste 0 -- -- 60
2019-10-23 12:00:00 15.4 6 Oeste 12 Oeste 0 -- -- 67
2019-10-23 11:00:00 14.4 4 Oeste 8 Oeste 0 -- -- 76
2019-10-23 10:00:00 12.2 5 Sudoeste 14 Sudoeste 0 -- -- 83
2019-10-23 09:00:00 12.3 7 Oeste 13 Oeste 0 -- -- 80
2019-10-23 08:00:00 12.2 8 Sudoeste 13 Sudoeste 0 -- -- 81
2019-10-23 07:00:00 11.1 6 Sudoeste 11 Sudoeste 0 -- -- 91
2019-10-23 06:00:00 11.6 5 Oeste 19 Sudoeste 0 -- -- 88
2019-10-23 05:00:00 11.8 8 Sudoeste 15 Oeste 0 -- -- 89
2019-10-23 04:00:00 11.7 4 Oeste 12 Oeste 0 -- -- 88
2019-10-23 03:00:00 11.6 5 Sudoeste 14 Oeste 0 -- -- 87
2019-10-23 02:00:00 12.8 7 Oeste 22 Oeste 0 -- -- 84
2019-10-23 01:00:00 13.3 12 Oeste 23 Oeste 0 -- -- 83
2019-10-23 00:00:00 13.3 8 Sudoeste 19 Sudoeste 0 -- -- 83
2019-10-22 23:00:00 12.6 6 Sudoeste 15 Sur 0 -- -- 85
2019-10-22 22:00:00 13.4 8 Sudoeste 18 Sur 0 -- -- 81
2019-10-22 21:00:00 13.1 9 Sudoeste 19 Sudoeste 0 -- -- 85
2019-10-22 20:00:00 12.9 9 Sudoeste 16 Sur 0 -- -- 87
2019-10-22 19:00:00 13.4 7 Oeste 19 Sudoeste 0 -- -- 87
2019-10-22 18:00:00 13.5 9 Sudoeste 27 Oeste 0 -- -- 87
2019-10-22 17:00:00 13.7 13 Oeste 27 Oeste 0.2 -- -- 90
2019-10-22 16:00:00 13.7 10 Oeste 22 Oeste 0.2 -- -- 92
2019-10-22 15:00:00 13.5 8 Oeste 22 Oeste 0.2 -- -- 90
2019-10-22 14:00:00 13.2 12 Oeste 29 Oeste 1.4 -- -- 89
2019-10-22 13:00:00 13.9 23 Oeste 37 Oeste 0 -- -- 81
2019-10-22 12:00:00 13.9 17 Oeste 34 Oeste 0 -- -- 91
2019-10-22 11:00:00 13.5 16 Oeste 32 Oeste 1.2 -- -- 94
2019-10-22 10:00:00 13.6 16 Sudoeste 31 Oeste 0.4 -- -- 94
2019-10-22 09:00:00 13.7 13 Oeste 23 Oeste 1 -- -- 95
2019-10-22 08:00:00 13.8 13 Oeste 21 Oeste 1.6 -- -- 96
2019-10-22 07:00:00 13.7 7 Sudoeste 18 Sudoeste 1.8 -- -- 95
2019-10-22 06:00:00 13.4 6 Norte 14 Norte 4.2 -- -- 95
2019-10-22 05:00:00 13.3 6 Nordeste 21 Norte 9.4 -- -- 95
2019-10-22 04:00:00 14.4 8 Nordeste 19 Nordeste 4 -- -- 94
2019-10-22 03:00:00 14.9 12 Norte 19 Nordeste 3 -- -- 93
2019-10-22 02:00:00 15.7 5 Noroeste 8 Nordeste 0.4 -- -- 93
2019-10-22 01:00:00 15.6 4 Oeste 9 Sudoeste 1.6 -- -- 93
2019-10-22 00:00:00 16.2 3 Este 8 Nordeste 3.6 -- -- 92
2019-10-21 23:00:00 16.5 0 Calma 17 Este 0.8 -- -- 88
2019-10-21 22:00:00 16.3 4 Oeste 8 Este 0 -- -- 78
2019-10-21 21:00:00 16.6 3 Norte 6 Nordeste 0 -- -- 68
2019-10-21 20:00:00 16.7 0 Calma 4 Este 0 -- -- 62
2019-10-21 19:00:00 17.3 0 Calma 3 Noroeste 0 -- -- 61
2019-10-21 18:00:00 18.7 0 Calma 7 Este 0 -- -- 57
2019-10-21 17:00:00 19.3 3 Sudeste 11 Sudeste 0 -- -- 51
2019-10-21 16:00:00 19.1 3 Nordeste 5 Nordeste 0 -- -- 55
2019-10-21 15:00:00 18.4 4 Sudoeste 9 Oeste 0 -- -- 58
2019-10-21 14:00:00 18.2 4 Oeste 12 Oeste 0 -- -- 54
2019-10-21 13:00:00 17.2 6 Oeste 15 Sudoeste 0 -- -- 59
2019-10-21 12:00:00 15.6 8 Oeste 19 Oeste 0 -- -- 65
2019-10-21 11:00:00 14.2 10 Oeste 19 Oeste 0 -- -- 68
2019-10-21 10:00:00 12.5 8 Oeste 17 Sudoeste 0 -- -- 74
2019-10-21 09:00:00 11.6 0 Calma 6 Norte 0 -- -- 84
2019-10-21 08:00:00 11.8 2 Noroeste 6 Sudeste 0 -- -- 83
2019-10-21 07:00:00 11.3 0 Calma 7 Oeste 0 -- -- 84
2019-10-21 06:00:00 12.2 5 Noroeste 8 Noroeste 0 -- -- 81
2019-10-21 05:00:00 12.5 3 Oeste 8 Oeste 0 -- -- 82
2019-10-21 04:00:00 13.1 5 Oeste 14 Oeste 0 -- -- 80
2019-10-21 03:00:00 14.3 8 Oeste 13 Oeste 0 -- -- 78
2019-10-21 02:00:00 14.5 4 Oeste 8 Oeste 0 -- -- 74
2019-10-21 01:00:00 14.5 3 Oeste 7 Norte 0 -- -- 71
2019-10-21 00:00:00 16 4 Noroeste 10 Norte 0 -- -- 65
2019-10-20 23:00:00 16.2 2 Norte 14 Sudoeste 0 -- -- 74
2019-10-20 22:00:00 17 3 Sudoeste 9 Sur 0 -- -- 67
2019-10-20 21:00:00 18 5 Sur 12 Sudoeste 0 -- -- 65
2019-10-20 20:00:00 17.6 4 Sudoeste 8 Sudoeste 0 -- -- 67
2019-10-20 19:00:00 18.2 5 Este 10 Este 0 -- -- 66
2019-10-20 18:00:00 18.5 7 Sudoeste 15 Oeste 0 -- -- 66
2019-10-20 17:00:00 18.6 9 Noroeste 16 Oeste 0 -- -- 70
2019-10-20 16:00:00 18.6 7 Noroeste 23 Oeste 0.2 -- -- 70
2019-10-20 15:00:00 20 9 Oeste 18 Oeste 0 -- -- 57
2019-10-20 14:00:00 19.9 12 Oeste 31 Oeste 0 -- -- 57
2019-10-20 13:00:00 20.6 13 Oeste 35 Noroeste 0 -- -- 56
2019-10-20 12:00:00 21.3 14 Oeste 24 Oeste 0 -- -- 53
2019-10-20 11:00:00 20.7 13 Oeste 28 Oeste 0 -- -- 55
2019-10-20 10:00:00 19.7 9 Oeste 24 Sudoeste 0 -- -- 64
2019-10-20 09:00:00 17 8 Sudoeste 15 Sudoeste 0 -- -- 94
2019-10-20 08:00:00 16.5 10 Oeste 23 Sudoeste 0 -- -- 96
2019-10-20 07:00:00 15.7 6 Sudoeste 10 Oeste 0 -- -- 96
2019-10-20 06:00:00 16.5 0 Calma 4 Noroeste 0 -- -- 94
2019-10-20 05:00:00 16.8 3 Sudeste 7 Este 0 -- -- 94
2019-10-20 04:00:00 17.1 0 Calma 7 Sudoeste 0 -- -- 94
2019-10-20 03:00:00 17.8 5 Sudoeste 10 Sudoeste 0 -- -- 93
2019-10-20 02:00:00 17.9 3 Sudoeste 9 Sudoeste 0 -- -- 92
2019-10-20 01:00:00 18 4 Sudoeste 5 Oeste 0 -- -- 91
2019-10-20 00:00:00 18.6 3 Oeste 6 Sudoeste 0 -- -- 88
2019-10-19 23:00:00 19.9 0 Calma 10 Sur 0 -- -- 85
2019-10-19 22:00:00 20.6 6 Sudeste 15 Sur 0 -- -- 84
2019-10-19 21:00:00 21 10 Sur 17 Sur 0 -- -- 82
2019-10-19 20:00:00 21.5 8 Sur 17 Sudoeste 0 -- -- 80
2019-10-19 19:00:00 22.5 13 Sur 22 Sur 0 -- -- 75
2019-10-19 18:00:00 24.1 11 Sur 24 Sur 0 -- -- 68
2019-10-19 17:00:00 25 13 Sur 25 Sur 0 -- -- 67
2019-10-19 16:00:00 25.8 11 Sur 24 Sudeste 0 -- -- 55
2019-10-19 15:00:00 25.7 13 Sur 28 Sudeste 0 -- -- 59
2019-10-19 14:00:00 27 9 Sudeste 17 Sudeste 0 -- -- 45
2019-10-19 13:00:00 25.3 4 Oeste 14 Sudoeste 0 -- -- 50
2019-10-19 12:00:00 22.9 5 Oeste 12 Oeste 0 -- -- 55
2019-10-19 11:00:00 19.6 6 Noroeste 9 Noroeste 0 -- -- 64
2019-10-19 10:00:00 15.9 0 Calma 5 Sudoeste 0 -- -- 77
2019-10-19 09:00:00 13.6 0 Calma 3 Nordeste 0 -- -- 86
2019-10-19 08:00:00 13.7 2 Oeste 7 Oeste 0 -- -- 84
2019-10-19 07:00:00 14.1 6 Sudoeste 10 Oeste 0 -- -- 84
2019-10-19 06:00:00 14.2 4 Oeste 8 Oeste 0 -- -- 87
2019-10-19 05:00:00 15.5 2 Noroeste 7 Sudoeste 0 -- -- 82
2019-10-19 04:00:00 15.9 0 Calma 10 Oeste 0 -- -- 78
2019-10-19 03:00:00 16.7 5 Oeste 10 Oeste 0 -- -- 76
2019-10-19 02:00:00 16.8 6 Sudoeste 10 Oeste 0 -- -- 81
2019-10-19 01:00:00 16.6 3 Oeste 8 Sudeste 0 -- -- 84
2019-10-19 00:00:00 18 4 Sudeste 5 Sudeste 0 -- -- 80
2019-10-18 23:00:00 18.5 0 Calma 5 Sudoeste 0 -- -- 77
2019-10-18 22:00:00 19.8 0 Calma 10 Sudeste 0 -- -- 71
2019-10-18 21:00:00 21.2 3 Nordeste 21 Sur 0 -- -- 63
2019-10-18 20:00:00 22.3 10 Sur 21 Sur 0 -- -- 58
2019-10-18 19:00:00 23 12 Sur 23 Sudeste 0 -- -- 68
2019-10-18 18:00:00 24.6 13 Sur 21 Sudeste 0 -- -- 58
2019-10-18 17:00:00 25.6 13 Sur 24 Sur 0 -- -- 53
2019-10-18 16:00:00 26.8 12 Sudeste 20 Sudeste 0 -- -- 42
2019-10-18 15:00:00 27.6 8 Sudeste 17 Sudeste 0 -- -- 38
2019-10-18 14:00:00 26.6 4 Sudoeste 11 Nordeste 0 -- -- 35
2019-10-18 13:00:00 24.8 4 Noroeste 9 Noroeste 0 -- -- 41
2019-10-18 12:00:00 22.4 3 Oeste 14 Noroeste 0 -- -- 46
2019-10-18 11:00:00 20 6 Noroeste 9 Oeste 0 -- -- 52
2019-10-18 10:00:00 17.8 3 Nordeste 5 Este 0 -- -- 64
2019-10-18 09:00:00 14.4 0 Calma 6 Oeste 0 -- -- 73
2019-10-18 08:00:00 14.1 4 Noroeste 8 Sudoeste 0 -- -- 70
2019-10-18 07:00:00 14.8 4 Oeste 12 Sudoeste 0 -- -- 69
2019-10-18 06:00:00 14.7 4 Oeste 11 Sudoeste 0 -- -- 69
2019-10-18 05:00:00 14.7 3 Oeste 4 Oeste 0 -- -- 73
2019-10-18 04:00:00 15.5 0 Calma 9 Oeste 0 -- -- 70
2019-10-18 03:00:00 16.8 7 Oeste 10 Oeste 0 -- -- 64
2019-10-18 02:00:00 18.5 6 Oeste 13 Sudoeste 0 -- -- 58
2019-10-18 01:00:00 18 7 Oeste 9 Oeste 0 -- -- 64
2019-10-18 00:00:00 18.7 5 Oeste 12 Oeste 0 -- -- 61
2019-10-17 23:00:00 20.2 6 Sudoeste 12 Sudoeste 0 -- -- 54
2019-10-17 22:00:00 20.9 8 Sudoeste 14 Sudoeste 0 -- -- 54
2019-10-17 21:00:00 22 8 Sudoeste 21 Sur 0 -- -- 55
2019-10-17 20:00:00 22.5 13 Sur 24 Sur 0 -- -- 52
2019-10-17 19:00:00 23 13 Sur 24 Sur 0 -- -- 56
2019-10-17 18:00:00 23.9 13 Sur 26 Sur 0 -- -- 55
2019-10-17 17:00:00 25 14 Sur 25 Sur 0 -- -- 49
2019-10-17 16:00:00 26.4 12 Sur 24 Sur 0 -- -- 42
2019-10-17 15:00:00 26.8 9 Oeste 17 Oeste 0 -- -- 30
2019-10-17 14:00:00 25.5 8 Oeste 15 Oeste 0 -- -- 35
2019-10-17 13:00:00 23 8 Oeste 21 Oeste 0 -- -- 42
2019-10-17 12:00:00 20.9 12 Oeste 22 Oeste 0 -- -- 43
2019-10-17 11:00:00 18.6 11 Oeste 19 Oeste 0 -- -- 53
2019-10-17 10:00:00 15 5 Oeste 11 Oeste 0 -- -- 72
2019-10-17 09:00:00 11.7 3 Oeste 6 Oeste 0 -- -- 86
2019-10-17 08:00:00 12.1 6 Oeste 11 Oeste 0 -- -- 85
2019-10-17 07:00:00 12.9 6 Oeste 10 Oeste 0 -- -- 81
2019-10-17 06:00:00 12.9 4 Oeste 10 Oeste 0 -- -- 84
2019-10-17 05:00:00 12.6 2 Oeste 8 Sudoeste 0 -- -- 87
2019-10-17 04:00:00 13.9 0 Calma 6 Sur 0 -- -- 85
2019-10-17 03:00:00 14.3 0 Calma 5 Sudeste 0 -- -- 85
2019-10-17 02:00:00 15.2 4 Sudeste 6 Sudoeste 0 -- -- 82
2019-10-17 01:00:00 15.1 3 Oeste 5 Oeste 0 -- -- 83
2019-10-17 00:00:00 16.2 3 Noroeste 11 Oeste 0 -- -- 76
2019-10-16 23:00:00 17.3 5 Sudoeste 10 Sudoeste 0 -- -- 73
2019-10-16 22:00:00 17.9 4 Sudoeste 16 Sur 0 -- -- 72
2019-10-16 21:00:00 19.4 9 Sur 21 Sur 0 -- -- 66
2019-10-16 20:00:00 20.2 10 Sur 19 Sur 0 -- -- 66
2019-10-16 19:00:00 21.2 12 Sur 25 Sudeste 0 -- -- 55
2019-10-16 18:00:00 22.6 14 Sur 24 Sur 0 -- -- 56
2019-10-16 17:00:00 23.3 13 Sur 23 Sur 0 -- -- 57
2019-10-16 16:00:00 23.8 10 Sur 25 Sudeste 0 -- -- 54
2019-10-16 15:00:00 24.2 9 Sur 17 Sur 0 -- -- 44
2019-10-16 14:00:00 23.6 5 Oeste 13 Oeste 0 -- -- 35
2019-10-16 13:00:00 21.8 5 Oeste 12 Noroeste 0 -- -- 40
2019-10-16 12:00:00 19.5 7 Oeste 17 Oeste 0 -- -- 45
2019-10-16 11:00:00 17.2 15 Oeste 23 Oeste 0 -- -- 50
2019-10-16 10:00:00 14.3 6 Oeste 13 Oeste 0 -- -- 64
2019-10-16 09:00:00 11.1 6 Oeste 9 Oeste 0 -- -- 76
2019-10-16 08:00:00 10.4 4 Oeste 5 Oeste 0 -- -- 80
2019-10-16 07:00:00 10.1 0 Calma 3 Norte 0 -- -- 83
2019-10-16 06:00:00 11 0 Calma 4 Oeste 0 -- -- 82
2019-10-16 05:00:00 12.3 4 Oeste 7 Oeste 0 -- -- 76
2019-10-16 04:00:00 12.7 3 Noroeste 7 Oeste 0 -- -- 77
2019-10-16 03:00:00 13.2 5 Oeste 6 Oeste 0 -- -- 75
2019-10-16 02:00:00 14.2 4 Oeste 8 Sudoeste 0 -- -- 70
2019-10-16 01:00:00 15.7 7 Sudoeste 12 Sudoeste 0 -- -- 63
2019-10-16 00:00:00 15.8 5 Oeste 12 Sudoeste 0 -- -- 67
2019-10-15 23:00:00 17.3 7 Sudoeste 18 Oeste 0 -- -- 62
2019-10-15 22:00:00 18.5 12 Sudoeste 25 Sur 0 -- -- 57
2019-10-15 21:00:00 19.2 12 Sur 21 Sur 0 -- -- 52
2019-10-15 20:00:00 19.7 6 Sur 8 Sur 0 -- -- 38
2019-10-15 19:00:00 22.2 5 Oeste 19 Noroeste 0 -- -- 34
2019-10-15 18:00:00 23.7 12 Noroeste 29 Oeste 0 -- -- 30
2019-10-15 17:00:00 23.5 16 Oeste 28 Oeste 0 -- -- 31
2019-10-15 16:00:00 23 15 Oeste 32 Oeste 0 -- -- 31
2019-10-15 15:00:00 22.2 18 Oeste 36 Oeste 0 -- -- 36
2019-10-15 14:00:00 21.3 18 Oeste 36 Oeste 0 -- -- 38
2019-10-15 13:00:00 20 27 Oeste 39 Oeste 0 -- -- 42
2019-10-15 12:00:00 19.1 24 Oeste 50 Oeste 0 -- -- 44
2019-10-15 11:00:00 18.3 28 Oeste 42 Oeste 0 -- -- 48
2019-10-15 10:00:00 17.2 26 Noroeste 38 Noroeste 0 -- -- 52
2019-10-15 09:00:00 16.1 19 Noroeste 45 Oeste 0 -- -- 55
2019-10-15 08:00:00 16.4 33 Oeste 49 Oeste 0 -- -- 53
2019-10-15 07:00:00 16.7 29 Oeste 43 Oeste 0 -- -- 53
2019-10-15 06:00:00 17.2 22 Oeste 34 Oeste 0 -- -- 53
2019-10-15 05:00:00 17.6 18 Oeste 27 Oeste 0 -- -- 52
2019-10-15 04:00:00 18.2 12 Sudoeste 25 Oeste 0 -- -- 51
2019-10-15 03:00:00 18.4 13 Oeste 24 Oeste 0 -- -- 58
2019-10-15 02:00:00 19 17 Oeste 29 Oeste 0 -- -- 59
2019-10-15 01:00:00 19.5 14 Oeste 23 Oeste 0 -- -- 64
2019-10-15 00:00:00 17.8 3 Sudoeste 10 Sur 0 -- -- 84
2019-10-14 23:00:00 18.7 0 Calma 5 Este 0 -- -- 81
2019-10-14 22:00:00 19.2 0 Calma 9 Noroeste 0 -- -- 80
2019-10-14 21:00:00 20.6 6 Norte 33 Noroeste 0 -- -- 77
2019-10-14 20:00:00 21.5 0 Calma 12 Sudeste 0 -- -- 86
2019-10-14 19:00:00 23.1 7 Sur 23 Sudeste 0 -- -- 80
2019-10-14 18:00:00 24 12 Sudeste 25 Sudeste 0 -- -- 80
2019-10-14 17:00:00 24.7 11 Sudeste 19 Sudeste 0 -- -- 77
2019-10-14 16:00:00 25 6 Sudeste 14 Sudeste 0 -- -- 76
2019-10-14 15:00:00 24.1 8 Sudeste 14 Sudeste 0 -- -- 73
2019-10-14 14:00:00 22.1 4 Sudeste 15 Norte 0.8 -- -- 88
2019-10-14 13:00:00 22.6 5 Oeste 20 Norte 1.2 -- -- 88
2019-10-14 12:00:00 22.3 9 Noroeste 22 Oeste 0 -- -- 85
2019-10-14 11:00:00 21.4 14 Oeste 22 Oeste 0 -- -- 88
2019-10-14 10:00:00 20.2 6 Oeste 11 Sudoeste 0 -- -- 92
2019-10-14 09:00:00 18.9 4 Oeste 10 Sudoeste 0 -- -- 95
2019-10-14 08:00:00 18.4 6 Oeste 9 Oeste 0 -- -- 95
2019-10-14 07:00:00 18.2 0 Calma 10 Oeste 0 -- -- 95
2019-10-14 06:00:00 18.6 7 Oeste 10 Oeste 0 -- -- 96
2019-10-14 05:00:00 18.7 0 Calma 5 Norte 0 -- -- 95
2019-10-14 04:00:00 19.3 0 Calma 8 Oeste 0 -- -- 95
2019-10-14 03:00:00 19.7 4 Oeste 5 Oeste 0 -- -- 95
2019-10-14 02:00:00 19.7 4 Oeste 6 Sudoeste 0 -- -- 95
2019-10-14 01:00:00 19.9 2 Oeste 5 Oeste 0 -- -- 94
2019-10-14 00:00:00 20.4 0 Calma 3 Nordeste 0 -- -- 94